sensor_id;sensor_type;location;lat;lon;timestamp;temperature;humidity
44461;DHT22;30162;53.642;10.640;2023-05-07T00:01:42;14.40;84.80
44461;DHT22;30162;53.642;10.640;2023-05-07T00:04:08;14.50;84.40
44461;DHT22;30162;53.642;10.640;2023-05-07T00:06:33;14.50;84.10
44461;DHT22;30162;53.642;10.640;2023-05-07T00:08:59;14.70;83.90
44461;DHT22;30162;53.642;10.640;2023-05-07T00:11:26;14.90;83.30
44461;DHT22;30162;53.642;10.640;2023-05-07T00:13:51;14.40;83.20
44461;DHT22;30162;53.642;10.640;2023-05-07T00:16:17;14.20;84.30
44461;DHT22;30162;53.642;10.640;2023-05-07T00:18:43;14.00;84.80
44461;DHT22;30162;53.642;10.640;2023-05-07T00:21:08;14.40;84.30
44461;DHT22;30162;53.642;10.640;2023-05-07T00:23:34;14.70;83.60
44461;DHT22;30162;53.642;10.640;2023-05-07T00:25:59;14.70;83.00
44461;DHT22;30162;53.642;10.640;2023-05-07T00:28:25;14.60;83.10
44461;DHT22;30162;53.642;10.640;2023-05-07T00:30:51;14.60;83.00
44461;DHT22;30162;53.642;10.640;2023-05-07T00:33:16;14.20;84.00
44461;DHT22;30162;53.642;10.640;2023-05-07T00:35:42;14.40;83.50
44461;DHT22;30162;53.642;10.640;2023-05-07T00:38:08;14.60;83.30
44461;DHT22;30162;53.642;10.640;2023-05-07T00:40:33;14.00;83.20
44461;DHT22;30162;53.642;10.640;2023-05-07T00:42:59;14.20;84.20
44461;DHT22;30162;53.642;10.640;2023-05-07T00:45:28;14.50;83.50
44461;DHT22;30162;53.642;10.640;2023-05-07T00:47:55;14.70;82.70
44461;DHT22;30162;53.642;10.640;2023-05-07T00:50:21;14.10;83.60
44461;DHT22;30162;53.642;10.640;2023-05-07T00:52:47;14.20;83.50
44461;DHT22;30162;53.642;10.640;2023-05-07T00:55:13;14.00;83.80
44461;DHT22;30162;53.642;10.640;2023-05-07T00:57:40;14.00;84.10
44461;DHT22;30162;53.642;10.640;2023-05-07T01:00:07;13.80;84.00
44461;DHT22;30162;53.642;10.640;2023-05-07T01:02:34;13.80;83.80
44461;DHT22;30162;53.642;10.640;2023-05-07T01:05:01;14.10;83.80
44461;DHT22;30162;53.642;10.640;2023-05-07T01:07:27;14.10;83.60
44461;DHT22;30162;53.642;10.640;2023-05-07T01:09:53;13.90;84.10
44461;DHT22;30162;53.642;10.640;2023-05-07T01:12:19;13.90;84.00
44461;DHT22;30162;53.642;10.640;2023-05-07T01:14:45;14.00;83.50
44461;DHT22;30162;53.642;10.640;2023-05-07T01:17:11;14.00;84.10
44461;DHT22;30162;53.642;10.640;2023-05-07T01:19:36;14.00;83.60
44461;DHT22;30162;53.642;10.640;2023-05-07T01:22:08;14.20;83.70
44461;DHT22;30162;53.642;10.640;2023-05-07T01:24:36;14.30;83.40
44461;DHT22;30162;53.642;10.640;2023-05-07T01:27:02;14.40;83.30
44461;DHT22;30162;53.642;10.640;2023-05-07T01:29:28;14.50;83.10
44461;DHT22;30162;53.642;10.640;2023-05-07T01:31:55;14.70;82.80
44461;DHT22;30162;53.642;10.640;2023-05-07T01:34:22;14.70;82.30
44461;DHT22;30162;53.642;10.640;2023-05-07T01:36:50;14.80;82.20
44461;DHT22;30162;53.642;10.640;2023-05-07T01:39:16;14.80;82.10
44461;DHT22;30162;53.642;10.640;2023-05-07T01:41:43;14.40;82.10
44461;DHT22;30162;53.642;10.640;2023-05-07T01:44:10;14.10;82.50
44461;DHT22;30162;53.642;10.640;2023-05-07T01:46:37;13.90;82.80
44461;DHT22;30162;53.642;10.640;2023-05-07T01:49:03;13.50;84.10
44461;DHT22;30162;53.642;10.640;2023-05-07T01:51:29;13.60;84.10
44461;DHT22;30162;53.642;10.640;2023-05-07T01:53:55;13.80;83.70
44461;DHT22;30162;53.642;10.640;2023-05-07T01:56:20;13.80;83.20
44461;DHT22;30162;53.642;10.640;2023-05-07T01:58:46;13.60;83.40
44461;DHT22;30162;53.642;10.640;2023-05-07T02:01:13;14.00;82.90
44461;DHT22;30162;53.642;10.640;2023-05-07T02:03:38;13.70;82.70
44461;DHT22;30162;53.642;10.640;2023-05-07T02:06:04;13.70;83.40
44461;DHT22;30162;53.642;10.640;2023-05-07T02:08:29;13.80;83.00
44461;DHT22;30162;53.642;10.640;2023-05-07T02:10:55;14.10;82.70
44461;DHT22;30162;53.642;10.640;2023-05-07T02:13:21;14.30;82.20
44461;DHT22;30162;53.642;10.640;2023-05-07T02:15:47;14.10;82.50
44461;DHT22;30162;53.642;10.640;2023-05-07T02:18:16;14.20;82.70
44461;DHT22;30162;53.642;10.640;2023-05-07T02:20:41;14.10;82.40
44461;DHT22;30162;53.642;10.640;2023-05-07T02:23:07;14.20;82.50
44461;DHT22;30162;53.642;10.640;2023-05-07T02:25:33;14.30;81.80
44461;DHT22;30162;53.642;10.640;2023-05-07T02:27:58;14.30;81.90
44461;DHT22;30162;53.642;10.640;2023-05-07T02:30:25;13.90;81.70
44461;DHT22;30162;53.642;10.640;2023-05-07T02:32:51;13.80;82.90
44461;DHT22;30162;53.642;10.640;2023-05-07T02:35:16;13.70;83.10
44461;DHT22;30162;53.642;10.640;2023-05-07T02:37:42;13.80;82.90
44461;DHT22;30162;53.642;10.640;2023-05-07T02:40:08;14.00;82.90
44461;DHT22;30162;53.642;10.640;2023-05-07T02:42:34;14.20;82.20
44461;DHT22;30162;53.642;10.640;2023-05-07T02:45:00;14.00;82.00
44461;DHT22;30162;53.642;10.640;2023-05-07T02:47:26;14.10;82.40
44461;DHT22;30162;53.642;10.640;2023-05-07T02:49:55;14.10;82.30
44461;DHT22;30162;53.642;10.640;2023-05-07T02:52:21;14.20;82.70
44461;DHT22;30162;53.642;10.640;2023-05-07T02:54:46;14.20;81.70
44461;DHT22;30162;53.642;10.640;2023-05-07T02:57:12;14.10;82.60
44461;DHT22;30162;53.642;10.640;2023-05-07T02:59:37;14.20;81.90
44461;DHT22;30162;53.642;10.640;2023-05-07T03:02:03;14.30;81.60
44461;DHT22;30162;53.642;10.640;2023-05-07T03:04:28;14.30;81.40
44461;DHT22;30162;53.642;10.640;2023-05-07T03:06:54;14.20;81.10
44461;DHT22;30162;53.642;10.640;2023-05-07T03:09:20;14.10;81.60
44461;DHT22;30162;53.642;10.640;2023-05-07T03:11:46;14.30;81.10
44461;DHT22;30162;53.642;10.640;2023-05-07T03:14:11;14.20;81.50
44461;DHT22;30162;53.642;10.640;2023-05-07T03:16:37;14.40;81.40
44461;DHT22;30162;53.642;10.640;2023-05-07T03:19:03;14.20;81.20
44461;DHT22;30162;53.642;10.640;2023-05-07T03:21:28;13.30;82.20
44461;DHT22;30162;53.642;10.640;2023-05-07T03:23:55;13.40;83.40
44461;DHT22;30162;53.642;10.640;2023-05-07T03:26:20;13.80;82.80
44461;DHT22;30162;53.642;10.640;2023-05-07T03:28:46;14.10;82.10
44461;DHT22;30162;53.642;10.640;2023-05-07T03:31:12;14.20;81.70
44461;DHT22;30162;53.642;10.640;2023-05-07T03:33:55;13.70;82.70
44461;DHT22;30162;53.642;10.640;2023-05-07T03:36:22;13.70;82.90
44461;DHT22;30162;53.642;10.640;2023-05-07T03:38:48;13.60;82.80
44461;DHT22;30162;53.642;10.640;2023-05-07T03:41:14;13.50;83.00
44461;DHT22;30162;53.642;10.640;2023-05-07T03:43:40;13.70;82.60
44461;DHT22;30162;53.642;10.640;2023-05-07T03:46:05;14.20;82.00
44461;DHT22;30162;53.642;10.640;2023-05-07T03:48:31;14.20;81.70
44461;DHT22;30162;53.642;10.640;2023-05-07T03:50:59;14.20;81.10
44461;DHT22;30162;53.642;10.640;2023-05-07T03:53:25;14.30;81.30
44461;DHT22;30162;53.642;10.640;2023-05-07T03:55:51;14.00;81.20
44461;DHT22;30162;53.642;10.640;2023-05-07T03:58:16;13.90;82.00
44461;DHT22;30162;53.642;10.640;2023-05-07T04:00:42;13.60;82.90
44461;DHT22;30162;53.642;10.640;2023-05-07T04:03:08;13.60;83.20
44461;DHT22;30162;53.642;10.640;2023-05-07T04:05:33;14.00;82.50
44461;DHT22;30162;53.642;10.640;2023-05-07T04:07:59;14.10;82.10
44461;DHT22;30162;53.642;10.640;2023-05-07T04:10:25;14.00;82.10
44461;DHT22;30162;53.642;10.640;2023-05-07T04:12:51;14.00;82.30
44461;DHT22;30162;53.642;10.640;2023-05-07T04:15:17;13.90;82.50
44461;DHT22;30162;53.642;10.640;2023-05-07T04:17:42;14.20;82.30
44461;DHT22;30162;53.642;10.640;2023-05-07T04:20:14;13.90;82.60
44461;DHT22;30162;53.642;10.640;2023-05-07T04:22:40;14.10;82.60
44461;DHT22;30162;53.642;10.640;2023-05-07T04:25:06;14.40;81.80
44461;DHT22;30162;53.642;10.640;2023-05-07T04:27:33;14.30;81.30
44461;DHT22;30162;53.642;10.640;2023-05-07T04:29:58;14.40;81.10
44461;DHT22;30162;53.642;10.640;2023-05-07T04:32:26;14.20;81.60
44461;DHT22;30162;53.642;10.640;2023-05-07T04:34:51;14.30;81.40
44461;DHT22;30162;53.642;10.640;2023-05-07T04:37:17;14.20;81.80
44461;DHT22;30162;53.642;10.640;2023-05-07T04:39:43;14.30;81.40
44461;DHT22;30162;53.642;10.640;2023-05-07T04:42:08;14.20;81.80
44461;DHT22;30162;53.642;10.640;2023-05-07T04:44:34;14.40;81.50
44461;DHT22;30162;53.642;10.640;2023-05-07T04:47:00;13.80;82.30
44461;DHT22;30162;53.642;10.640;2023-05-07T04:49:26;13.70;82.90
44461;DHT22;30162;53.642;10.640;2023-05-07T04:51:51;14.00;82.60
44461;DHT22;30162;53.642;10.640;2023-05-07T04:54:17;14.30;82.20
44461;DHT22;30162;53.642;10.640;2023-05-07T04:56:42;14.40;81.70
44461;DHT22;30162;53.642;10.640;2023-05-07T04:59:08;14.20;82.00
44461;DHT22;30162;53.642;10.640;2023-05-07T05:01:33;14.30;81.40
44461;DHT22;30162;53.642;10.640;2023-05-07T05:03:59;14.30;81.70
44461;DHT22;30162;53.642;10.640;2023-05-07T05:06:25;14.30;81.70
44461;DHT22;30162;53.642;10.640;2023-05-07T05:08:51;14.30;81.40
44461;DHT22;30162;53.642;10.640;2023-05-07T05:11:16;14.30;81.60
44461;DHT22;30162;53.642;10.640;2023-05-07T05:13:42;14.60;81.20
44461;DHT22;30162;53.642;10.640;2023-05-07T05:16:07;14.50;81.10
44461;DHT22;30162;53.642;10.640;2023-05-07T05:18:33;14.40;81.10
44461;DHT22;30162;53.642;10.640;2023-05-07T05:20:58;14.60;81.10
44461;DHT22;30162;53.642;10.640;2023-05-07T05:23:24;14.70;81.00
44461;DHT22;30162;53.642;10.640;2023-05-07T05:25:50;14.80;80.70
44461;DHT22;30162;53.642;10.640;2023-05-07T05:28:15;14.90;80.70
44461;DHT22;30162;53.642;10.640;2023-05-07T05:30:41;14.80;80.60
44461;DHT22;30162;53.642;10.640;2023-05-07T05:33:06;14.60;81.20
44461;DHT22;30162;53.642;10.640;2023-05-07T05:35:32;14.50;81.20
44461;DHT22;30162;53.642;10.640;2023-05-07T05:37:57;14.60;81.40
44461;DHT22;30162;53.642;10.640;2023-05-07T05:40:23;14.80;80.80
44461;DHT22;30162;53.642;10.640;2023-05-07T05:42:48;15.00;80.50
44461;DHT22;30162;53.642;10.640;2023-05-07T05:45:14;15.00;80.00
44461;DHT22;30162;53.642;10.640;2023-05-07T05:47:41;15.20;80.20
44461;DHT22;30162;53.642;10.640;2023-05-07T05:50:07;15.10;80.10
44461;DHT22;30162;53.642;10.640;2023-05-07T05:52:32;15.00;79.90
44461;DHT22;30162;53.642;10.640;2023-05-07T05:54:58;14.70;81.00
44461;DHT22;30162;53.642;10.640;2023-05-07T05:57:24;14.80;80.50
44461;DHT22;30162;53.642;10.640;2023-05-07T05:59:49;14.90;80.10
44461;DHT22;30162;53.642;10.640;2023-05-07T06:02:15;14.90;80.50
44461;DHT22;30162;53.642;10.640;2023-05-07T06:04:40;15.00;79.90
44461;DHT22;30162;53.642;10.640;2023-05-07T06:07:07;15.10;79.60
44461;DHT22;30162;53.642;10.640;2023-05-07T06:09:33;15.20;79.80
44461;DHT22;30162;53.642;10.640;2023-05-07T06:11:58;15.20;79.30
44461;DHT22;30162;53.642;10.640;2023-05-07T06:14:24;14.70;80.40
44461;DHT22;30162;53.642;10.640;2023-05-07T06:16:49;14.80;80.50
44461;DHT22;30162;53.642;10.640;2023-05-07T06:19:15;15.00;79.70
44461;DHT22;30162;53.642;10.640;2023-05-07T06:21:43;15.30;79.90
44461;DHT22;30162;53.642;10.640;2023-05-07T06:24:08;15.10;79.80
44461;DHT22;30162;53.642;10.640;2023-05-07T06:26:34;15.00;79.90
44461;DHT22;30162;53.642;10.640;2023-05-07T06:29:00;15.20;79.70
44461;DHT22;30162;53.642;10.640;2023-05-07T06:31:29;15.00;79.30
44461;DHT22;30162;53.642;10.640;2023-05-07T06:33:55;15.10;79.30
44461;DHT22;30162;53.642;10.640;2023-05-07T06:36:20;14.30;80.00
44461;DHT22;30162;53.642;10.640;2023-05-07T06:38:46;14.30;81.10
44461;DHT22;30162;53.642;10.640;2023-05-07T06:41:11;14.70;81.40
44461;DHT22;30162;53.642;10.640;2023-05-07T06:43:37;14.90;80.60
44461;DHT22;30162;53.642;10.640;2023-05-07T06:46:02;14.90;80.10
44461;DHT22;30162;53.642;10.640;2023-05-07T06:48:28;15.00;80.20
44461;DHT22;30162;53.642;10.640;2023-05-07T06:50:53;14.50;81.10
44461;DHT22;30162;53.642;10.640;2023-05-07T06:53:20;14.60;80.50
44461;DHT22;30162;53.642;10.640;2023-05-07T06:55:46;15.00;79.60
44461;DHT22;30162;53.642;10.640;2023-05-07T06:58:12;14.70;80.10
44461;DHT22;30162;53.642;10.640;2023-05-07T07:00:37;14.80;79.50
44461;DHT22;30162;53.642;10.640;2023-05-07T07:03:03;14.50;80.50
44461;DHT22;30162;53.642;10.640;2023-05-07T07:05:28;14.60;78.80
44461;DHT22;30162;53.642;10.640;2023-05-07T07:07:54;14.80;78.80
44461;DHT22;30162;53.642;10.640;2023-05-07T07:10:20;15.00;79.00
44461;DHT22;30162;53.642;10.640;2023-05-07T07:12:45;14.70;79.00
44461;DHT22;30162;53.642;10.640;2023-05-07T07:15:11;14.90;78.50
44461;DHT22;30162;53.642;10.640;2023-05-07T07:17:37;15.30;78.00
44461;DHT22;30162;53.642;10.640;2023-05-07T07:20:02;15.40;77.90
44461;DHT22;30162;53.642;10.640;2023-05-07T07:22:28;15.60;77.60
44461;DHT22;30162;53.642;10.640;2023-05-07T07:24:54;15.40;77.90
44461;DHT22;30162;53.642;10.640;2023-05-07T07:27:20;15.30;77.30
44461;DHT22;30162;53.642;10.640;2023-05-07T07:29:45;15.20;78.10
44461;DHT22;30162;53.642;10.640;2023-05-07T07:32:11;15.60;78.40
44461;DHT22;30162;53.642;10.640;2023-05-07T07:34:36;15.50;78.20
44461;DHT22;30162;53.642;10.640;2023-05-07T07:37:02;14.70;79.00
44461;DHT22;30162;53.642;10.640;2023-05-07T07:39:34;14.50;80.00
44461;DHT22;30162;53.642;10.640;2023-05-07T07:41:59;15.00;79.00
44461;DHT22;30162;53.642;10.640;2023-05-07T07:44:25;15.00;77.50
44461;DHT22;30162;53.642;10.640;2023-05-07T07:46:51;15.10;77.90
44461;DHT22;30162;53.642;10.640;2023-05-07T07:49:17;15.30;77.30
44461;DHT22;30162;53.642;10.640;2023-05-07T07:51:42;15.00;77.90
44461;DHT22;30162;53.642;10.640;2023-05-07T07:54:08;14.60;78.40
44461;DHT22;30162;53.642;10.640;2023-05-07T07:56:34;14.60;78.50
44461;DHT22;30162;53.642;10.640;2023-05-07T07:59:00;15.00;78.00
44461;DHT22;30162;53.642;10.640;2023-05-07T08:01:26;15.40;77.60
44461;DHT22;30162;53.642;10.640;2023-05-07T08:03:51;14.70;79.10
44461;DHT22;30162;53.642;10.640;2023-05-07T08:06:17;14.90;78.00
44461;DHT22;30162;53.642;10.640;2023-05-07T08:08:43;15.00;78.20
44461;DHT22;30162;53.642;10.640;2023-05-07T08:11:08;15.20;77.40
44461;DHT22;30162;53.642;10.640;2023-05-07T08:13:34;15.10;77.10
44461;DHT22;30162;53.642;10.640;2023-05-07T08:16:00;15.10;77.50
44461;DHT22;30162;53.642;10.640;2023-05-07T08:18:26;14.80;77.60
44461;DHT22;30162;53.642;10.640;2023-05-07T08:20:53;14.50;78.50
44461;DHT22;30162;53.642;10.640;2023-05-07T08:23:19;14.30;79.50
44461;DHT22;30162;53.642;10.640;2023-05-07T08:25:44;14.60;79.20
44461;DHT22;30162;53.642;10.640;2023-05-07T08:28:10;14.80;78.50
44461;DHT22;30162;53.642;10.640;2023-05-07T08:30:35;15.10;78.80
44461;DHT22;30162;53.642;10.640;2023-05-07T08:33:01;15.50;79.30
44461;DHT22;30162;53.642;10.640;2023-05-07T08:35:27;15.70;78.90
44461;DHT22;30162;53.642;10.640;2023-05-07T08:37:53;15.60;77.20
44461;DHT22;30162;53.642;10.640;2023-05-07T08:40:18;15.80;77.60
44461;DHT22;30162;53.642;10.640;2023-05-07T08:42:44;16.10;76.70
44461;DHT22;30162;53.642;10.640;2023-05-07T08:45:11;16.10;76.20
44461;DHT22;30162;53.642;10.640;2023-05-07T08:47:44;15.30;77.20
44461;DHT22;30162;53.642;10.640;2023-05-07T08:50:11;15.60;77.90
44461;DHT22;30162;53.642;10.640;2023-05-07T08:52:37;15.60;75.50
44461;DHT22;30162;53.642;10.640;2023-05-07T08:55:04;15.50;78.50
44461;DHT22;30162;53.642;10.640;2023-05-07T08:57:30;16.00;76.60
44461;DHT22;30162;53.642;10.640;2023-05-07T08:59:56;16.40;76.00
44461;DHT22;30162;53.642;10.640;2023-05-07T09:02:21;16.50;75.20
44461;DHT22;30162;53.642;10.640;2023-05-07T09:04:47;16.30;75.50
44461;DHT22;30162;53.642;10.640;2023-05-07T09:07:13;16.60;75.30
44461;DHT22;30162;53.642;10.640;2023-05-07T09:09:38;16.20;74.70
44461;DHT22;30162;53.642;10.640;2023-05-07T09:12:04;16.00;76.60
44461;DHT22;30162;53.642;10.640;2023-05-07T09:14:30;16.70;75.60
44461;DHT22;30162;53.642;10.640;2023-05-07T09:16:56;17.00;75.00
44461;DHT22;30162;53.642;10.640;2023-05-07T09:19:23;17.00;75.10
44461;DHT22;30162;53.642;10.640;2023-05-07T09:21:49;16.90;73.80
44461;DHT22;30162;53.642;10.640;2023-05-07T09:24:18;17.10;74.70
44461;DHT22;30162;53.642;10.640;2023-05-07T09:26:43;16.80;74.40
44461;DHT22;30162;53.642;10.640;2023-05-07T09:29:10;16.80;74.90
44461;DHT22;30162;53.642;10.640;2023-05-07T09:31:39;17.10;74.60
44461;DHT22;30162;53.642;10.640;2023-05-07T09:34:05;17.60;75.50
44461;DHT22;30162;53.642;10.640;2023-05-07T09:36:32;17.80;72.90
44461;DHT22;30162;53.642;10.640;2023-05-07T09:39:00;17.30;74.20
44461;DHT22;30162;53.642;10.640;2023-05-07T09:41:26;17.20;74.10
44461;DHT22;30162;53.642;10.640;2023-05-07T09:43:55;17.60;74.80
44461;DHT22;30162;53.642;10.640;2023-05-07T09:46:25;17.80;74.50
44461;DHT22;30162;53.642;10.640;2023-05-07T09:48:52;18.00;72.80
44461;DHT22;30162;53.642;10.640;2023-05-07T09:51:29;18.10;73.50
44461;DHT22;30162;53.642;10.640;2023-05-07T09:53:57;18.50;73.30
44461;DHT22;30162;53.642;10.640;2023-05-07T09:56:23;18.70;72.90
44461;DHT22;30162;53.642;10.640;2023-05-07T09:58:49;18.90;73.60
44461;DHT22;30162;53.642;10.640;2023-05-07T10:01:17;19.40;72.20
44461;DHT22;30162;53.642;10.640;2023-05-07T10:03:47;19.70;70.30
44461;DHT22;30162;53.642;10.640;2023-05-07T10:06:15;19.80;69.80
44461;DHT22;30162;53.642;10.640;2023-05-07T10:08:42;19.50;70.70
44461;DHT22;30162;53.642;10.640;2023-05-07T10:11:09;19.90;70.60
44461;DHT22;30162;53.642;10.640;2023-05-07T10:13:35;20.30;69.60
44461;DHT22;30162;53.642;10.640;2023-05-07T10:16:06;20.40;68.50
44461;DHT22;30162;53.642;10.640;2023-05-07T10:18:32;20.50;67.00
44461;DHT22;30162;53.642;10.640;2023-05-07T10:21:11;20.60;68.50
44461;DHT22;30162;53.642;10.640;2023-05-07T10:23:37;19.50;69.30
44461;DHT22;30162;53.642;10.640;2023-05-07T10:26:06;19.70;70.60
44461;DHT22;30162;53.642;10.640;2023-05-07T10:28:41;19.90;69.70
44461;DHT22;30162;53.642;10.640;2023-05-07T10:34:16;20.20;67.60
44461;DHT22;30162;53.642;10.640;2023-05-07T10:36:43;19.80;68.90
44461;DHT22;30162;53.642;10.640;2023-05-07T10:39:09;20.20;69.50
44461;DHT22;30162;53.642;10.640;2023-05-07T10:41:35;20.60;69.30
44461;DHT22;30162;53.642;10.640;2023-05-07T10:44:02;19.90;67.30
44461;DHT22;30162;53.642;10.640;2023-05-07T10:46:27;19.90;68.40
44461;DHT22;30162;53.642;10.640;2023-05-07T10:51:29;20.20;67.00
44461;DHT22;30162;53.642;10.640;2023-05-07T10:56:36;19.80;69.00
44461;DHT22;30162;53.642;10.640;2023-05-07T11:02:05;18.60;69.70
44461;DHT22;30162;53.642;10.640;2023-05-07T11:04:35;18.70;69.60
44461;DHT22;30162;53.642;10.640;2023-05-07T11:09:54;19.30;70.10
44461;DHT22;30162;53.642;10.640;2023-05-07T11:15:03;19.90;68.90
44461;DHT22;30162;53.642;10.640;2023-05-07T11:17:29;19.60;69.50
44461;DHT22;30162;53.642;10.640;2023-05-07T11:19:57;20.10;68.40
44461;DHT22;30162;53.642;10.640;2023-05-07T11:22:36;20.30;67.80
44461;DHT22;30162;53.642;10.640;2023-05-07T11:25:05;20.20;68.20
44461;DHT22;30162;53.642;10.640;2023-05-07T11:27:32;20.10;67.30
44461;DHT22;30162;53.642;10.640;2023-05-07T11:29:58;19.90;69.00
44461;DHT22;30162;53.642;10.640;2023-05-07T11:32:27;20.10;67.80
44461;DHT22;30162;53.642;10.640;2023-05-07T11:34:54;20.00;68.30
44461;DHT22;30162;53.642;10.640;2023-05-07T11:37:21;20.20;67.90
44461;DHT22;30162;53.642;10.640;2023-05-07T11:39:47;20.00;67.60
44461;DHT22;30162;53.642;10.640;2023-05-07T11:42:28;19.90;68.20
44461;DHT22;30162;53.642;10.640;2023-05-07T11:44:54;19.90;67.10
44461;DHT22;30162;53.642;10.640;2023-05-07T11:47:20;19.90;68.00
44461;DHT22;30162;53.642;10.640;2023-05-07T11:49:50;20.20;67.50
44461;DHT22;30162;53.642;10.640;2023-05-07T11:52:17;19.90;66.50
44461;DHT22;30162;53.642;10.640;2023-05-07T11:54:57;19.40;67.70
44461;DHT22;30162;53.642;10.640;2023-05-07T11:57:23;19.90;69.10
44461;DHT22;30162;53.642;10.640;2023-05-07T11:59:53;20.60;68.90
44461;DHT22;30162;53.642;10.640;2023-05-07T12:02:19;21.20;68.20
44461;DHT22;30162;53.642;10.640;2023-05-07T12:04:44;21.20;64.70
44461;DHT22;30162;53.642;10.640;2023-05-07T12:07:17;20.90;67.70
44461;DHT22;30162;53.642;10.640;2023-05-07T12:09:44;20.90;66.40
44461;DHT22;30162;53.642;10.640;2023-05-07T12:12:10;20.90;66.20
44461;DHT22;30162;53.642;10.640;2023-05-07T12:14:43;21.00;66.00
44461;DHT22;30162;53.642;10.640;2023-05-07T12:17:13;21.20;65.30
44461;DHT22;30162;53.642;10.640;2023-05-07T12:19:40;20.70;65.80
44461;DHT22;30162;53.642;10.640;2023-05-07T12:22:10;20.80;65.60
44461;DHT22;30162;53.642;10.640;2023-05-07T12:24:46;21.10;65.50
44461;DHT22;30162;53.642;10.640;2023-05-07T12:27:16;20.60;65.60
44461;DHT22;30162;53.642;10.640;2023-05-07T12:29:46;20.40;66.00
44461;DHT22;30162;53.642;10.640;2023-05-07T12:32:16;20.60;66.60
44461;DHT22;30162;53.642;10.640;2023-05-07T12:34:42;20.30;65.70
44461;DHT22;30162;53.642;10.640;2023-05-07T12:37:08;20.50;66.20
44461;DHT22;30162;53.642;10.640;2023-05-07T12:39:33;19.50;68.00
44461;DHT22;30162;53.642;10.640;2023-05-07T12:41:59;19.90;67.70
44461;DHT22;30162;53.642;10.640;2023-05-07T12:44:29;20.30;66.40
44461;DHT22;30162;53.642;10.640;2023-05-07T12:46:55;20.70;66.00
44461;DHT22;30162;53.642;10.640;2023-05-07T12:49:21;21.40;66.30
44461;DHT22;30162;53.642;10.640;2023-05-07T12:51:47;22.00;63.30
44461;DHT22;30162;53.642;10.640;2023-05-07T12:54:14;22.00;62.50
44461;DHT22;30162;53.642;10.640;2023-05-07T12:56:39;21.30;63.60
44461;DHT22;30162;53.642;10.640;2023-05-07T12:59:05;20.60;64.10
44461;DHT22;30162;53.642;10.640;2023-05-07T13:01:31;20.70;65.00
44461;DHT22;30162;53.642;10.640;2023-05-07T13:04:03;21.30;65.00
44461;DHT22;30162;53.642;10.640;2023-05-07T13:06:30;21.90;63.90
44461;DHT22;30162;53.642;10.640;2023-05-07T13:08:56;22.00;63.30
44461;DHT22;30162;53.642;10.640;2023-05-07T13:11:22;21.90;63.20
44461;DHT22;30162;53.642;10.640;2023-05-07T13:13:48;21.00;62.90
44461;DHT22;30162;53.642;10.640;2023-05-07T13:16:13;20.90;62.60
44461;DHT22;30162;53.642;10.640;2023-05-07T13:18:40;20.80;62.40
44461;DHT22;30162;53.642;10.640;2023-05-07T13:21:06;21.00;63.40
44461;DHT22;30162;53.642;10.640;2023-05-07T13:23:31;21.70;63.40
44461;DHT22;30162;53.642;10.640;2023-05-07T13:25:57;21.70;62.00
44461;DHT22;30162;53.642;10.640;2023-05-07T13:28:23;22.20;62.00
44461;DHT22;30162;53.642;10.640;2023-05-07T13:30:49;22.40;60.90
44461;DHT22;30162;53.642;10.640;2023-05-07T13:33:14;22.60;61.20
44461;DHT22;30162;53.642;10.640;2023-05-07T13:35:41;22.80;61.30
44461;DHT22;30162;53.642;10.640;2023-05-07T13:38:07;22.90;60.90
44461;DHT22;30162;53.642;10.640;2023-05-07T13:40:32;23.20;60.70
44461;DHT22;30162;53.642;10.640;2023-05-07T13:42:59;23.00;59.10
44461;DHT22;30162;53.642;10.640;2023-05-07T13:45:27;23.00;60.30
44461;DHT22;30162;53.642;10.640;2023-05-07T13:47:54;22.70;59.80
44461;DHT22;30162;53.642;10.640;2023-05-07T13:50:20;22.60;61.60
44461;DHT22;30162;53.642;10.640;2023-05-07T13:52:46;22.70;61.40
44461;DHT22;30162;53.642;10.640;2023-05-07T13:55:19;22.70;61.40
44461;DHT22;30162;53.642;10.640;2023-05-07T13:57:45;22.10;60.70
44461;DHT22;30162;53.642;10.640;2023-05-07T14:00:11;22.40;61.90
44461;DHT22;30162;53.642;10.640;2023-05-07T14:02:37;22.30;60.70
44461;DHT22;30162;53.642;10.640;2023-05-07T14:05:03;22.00;60.10
44461;DHT22;30162;53.642;10.640;2023-05-07T14:07:29;21.70;60.60
44461;DHT22;30162;53.642;10.640;2023-05-07T14:09:56;21.70;61.10
44461;DHT22;30162;53.642;10.640;2023-05-07T14:12:21;21.90;61.30
44461;DHT22;30162;53.642;10.640;2023-05-07T14:14:47;22.10;60.60
44461;DHT22;30162;53.642;10.640;2023-05-07T14:17:17;22.40;60.90
44461;DHT22;30162;53.642;10.640;2023-05-07T14:19:42;21.40;60.90
44461;DHT22;30162;53.642;10.640;2023-05-07T14:22:08;21.00;61.50
44461;DHT22;30162;53.642;10.640;2023-05-07T14:24:34;21.00;61.30
44461;DHT22;30162;53.642;10.640;2023-05-07T14:26:59;20.60;61.80
44461;DHT22;30162;53.642;10.640;2023-05-07T14:29:25;21.10;62.30
44461;DHT22;30162;53.642;10.640;2023-05-07T14:31:51;21.80;61.90
44461;DHT22;30162;53.642;10.640;2023-05-07T14:34:16;21.60;61.50
44461;DHT22;30162;53.642;10.640;2023-05-07T14:36:42;21.40;60.10
44461;DHT22;30162;53.642;10.640;2023-05-07T14:39:09;21.70;60.30
44461;DHT22;30162;53.642;10.640;2023-05-07T14:41:34;21.50;60.60
44461;DHT22;30162;53.642;10.640;2023-05-07T14:44:00;21.70;60.90
44461;DHT22;30162;53.642;10.640;2023-05-07T14:46:26;21.80;59.60
44461;DHT22;30162;53.642;10.640;2023-05-07T14:48:52;21.80;59.90
44461;DHT22;30162;53.642;10.640;2023-05-07T14:51:18;21.80;59.70
44461;DHT22;30162;53.642;10.640;2023-05-07T14:53:44;22.10;60.60
44461;DHT22;30162;53.642;10.640;2023-05-07T14:56:10;21.70;60.10
44461;DHT22;30162;53.642;10.640;2023-05-07T14:58:35;20.90;60.60
44461;DHT22;30162;53.642;10.640;2023-05-07T15:01:01;21.40;61.20
44461;DHT22;30162;53.642;10.640;2023-05-07T15:03:27;21.40;60.10
44461;DHT22;30162;53.642;10.640;2023-05-07T15:05:52;21.70;60.80
44461;DHT22;30162;53.642;10.640;2023-05-07T15:08:18;21.10;60.30
44461;DHT22;30162;53.642;10.640;2023-05-07T15:10:44;20.60;61.30
44461;DHT22;30162;53.642;10.640;2023-05-07T15:13:10;20.90;62.10
44461;DHT22;30162;53.642;10.640;2023-05-07T15:15:37;21.30;61.30
44461;DHT22;30162;53.642;10.640;2023-05-07T15:18:03;21.10;60.90
44461;DHT22;30162;53.642;10.640;2023-05-07T15:20:29;20.90;61.30
44461;DHT22;30162;53.642;10.640;2023-05-07T15:22:54;21.30;61.40
44461;DHT22;30162;53.642;10.640;2023-05-07T15:25:21;21.70;60.20
44461;DHT22;30162;53.642;10.640;2023-05-07T15:27:46;22.00;60.30